createdAt,value
2023-04-29T00:01:15.492Z,47.87
2023-04-29T00:03:43.159Z,44.60
2023-04-29T00:06:11.733Z,47.40
2023-04-29T00:08:38.548Z,43.27
2023-04-29T00:11:05.468Z,42.73
2023-04-29T00:13:32.452Z,44.40
2023-04-29T00:15:59.242Z,47.77
2023-04-29T00:18:26.081Z,47.10
2023-04-29T00:20:53.038Z,44.83
2023-04-29T00:23:20.017Z,45.13
2023-04-29T00:25:47.060Z,36.40
2023-04-29T00:28:14.049Z,42.40
2023-04-29T00:30:40.914Z,40.20
2023-04-29T00:33:07.957Z,47.27
2023-04-29T00:35:35.430Z,40.70
2023-04-29T00:38:02.133Z,41.60
2023-04-29T00:40:29.320Z,40.73
2023-04-29T00:42:57.239Z,42.97
2023-04-29T00:45:24.248Z,41.67
2023-04-29T00:47:52.812Z,39.87
2023-04-29T00:50:19.855Z,42.33
2023-04-29T00:52:47.471Z,43.37
2023-04-29T00:55:15.249Z,37.97
2023-04-29T00:57:42.689Z,37.97
2023-04-29T01:00:10.296Z,38.30
2023-04-29T01:02:37.949Z,39.13
2023-04-29T01:05:05.102Z,38.17
2023-04-29T01:07:38.648Z,40.17
2023-04-29T01:10:27.540Z,42.70
2023-04-29T01:13:18.365Z,45.00
2023-04-29T01:16:04.262Z,38.77
2023-04-29T01:18:37.732Z,40.77
2023-04-29T01:21:04.758Z,42.47
2023-04-29T01:23:31.900Z,42.17
2023-04-29T01:25:59.277Z,49.47
2023-04-29T01:28:48.842Z,45.47
2023-04-29T01:31:21.511Z,43.33
2023-04-29T01:34:10.906Z,37.47
2023-04-29T01:36:47.825Z,41.47
2023-04-29T01:39:18.397Z,46.13
2023-04-29T01:42:16.866Z,41.50
2023-04-29T01:44:44.019Z,41.70
2023-04-29T01:47:14.242Z,47.80
2023-04-29T01:49:46.976Z,48.00
2023-04-29T01:52:13.695Z,47.93
2023-04-29T01:54:43.558Z,44.77
2023-04-29T01:57:10.812Z,46.27
2023-04-29T01:59:49.282Z,44.47
2023-04-29T02:02:39.121Z,47.00
2023-04-29T02:05:16.572Z,38.87
2023-04-29T02:07:52.688Z,40.77
2023-04-29T02:10:19.787Z,41.07
2023-04-29T02:12:48.815Z,39.03
2023-04-29T02:15:17.758Z,42.83
2023-04-29T02:17:44.659Z,40.40
2023-04-29T02:20:11.985Z,39.63
2023-04-29T02:22:39.491Z,38.13
2023-04-29T02:25:07.315Z,37.20
2023-04-29T02:27:34.165Z,37.33
2023-04-29T02:30:00.910Z,38.60
2023-04-29T02:32:28.512Z,34.13
2023-04-29T02:34:55.285Z,34.37
2023-04-29T02:37:21.992Z,35.20
2023-04-29T02:39:49.023Z,32.63
2023-04-29T02:42:15.698Z,39.87
2023-04-29T02:44:42.691Z,33.83
2023-04-29T02:47:09.594Z,30.73
2023-04-29T02:49:36.311Z,31.77
2023-04-29T02:52:03.074Z,37.07
2023-04-29T02:54:31.876Z,35.23
2023-04-29T02:56:58.933Z,33.33
2023-04-29T02:59:25.754Z,29.40
2023-04-29T03:01:54.225Z,29.97
2023-04-29T03:04:21.032Z,30.47
2023-04-29T03:06:48.728Z,36.07
2023-04-29T03:09:15.702Z,29.83
2023-04-29T03:11:45.283Z,27.60
2023-04-29T03:14:12.589Z,29.87
2023-04-29T03:16:40.234Z,29.20
2023-04-29T03:19:07.355Z,27.50
2023-04-29T03:21:34.325Z,26.93
2023-04-29T03:24:01.244Z,24.53
2023-04-29T03:26:33.297Z,24.23
2023-04-29T03:29:00.167Z,25.33
2023-04-29T03:31:27.561Z,27.73
2023-04-29T03:33:54.497Z,29.50
2023-04-29T03:36:22.183Z,23.37
2023-04-29T03:39:01.659Z,28.23
2023-04-29T03:41:29.399Z,29.47
2023-04-29T03:44:00.707Z,29.10
2023-04-29T03:46:29.067Z,29.57
2023-04-29T03:48:58.737Z,31.47
2023-04-29T03:51:25.933Z,27.77
2023-04-29T03:53:59.081Z,33.17
2023-04-29T03:56:26.342Z,28.90
2023-04-29T03:58:53.515Z,31.93
2023-04-29T04:01:22.354Z,36.53
2023-04-29T04:03:49.659Z,30.93
2023-04-29T04:06:16.672Z,29.37
2023-04-29T04:08:43.833Z,28.33
2023-04-29T04:11:15.387Z,33.33
2023-04-29T04:13:45.943Z,35.50
2023-04-29T04:16:13.199Z,35.87
2023-04-29T04:18:40.236Z,37.07
2023-04-29T04:21:11.614Z,41.07
2023-04-29T04:23:41.257Z,39.20
2023-04-29T04:26:10.340Z,39.37
2023-04-29T04:28:52.635Z,42.43
2023-04-29T04:31:27.811Z,43.00
2023-04-29T04:33:54.605Z,41.70
2023-04-29T04:36:21.616Z,40.67
2023-04-29T04:38:48.537Z,45.13
2023-04-29T04:41:15.433Z,39.50
2023-04-29T04:43:44.528Z,39.07
2023-04-29T04:46:20.834Z,44.03
2023-04-29T04:49:07.819Z,48.10
2023-04-29T04:51:40.553Z,46.97
2023-04-29T04:54:07.508Z,46.70
2023-04-29T04:56:37.171Z,43.20
2023-04-29T04:59:05.373Z,38.27
2023-04-29T05:01:34.273Z,48.27
2023-04-29T05:04:02.743Z,41.80
2023-04-29T05:06:30.963Z,42.17
2023-04-29T05:08:57.893Z,39.97
2023-04-29T05:11:25.058Z,42.97
2023-04-29T05:14:07.685Z,39.40
2023-04-29T05:16:34.508Z,40.47
2023-04-29T05:19:01.478Z,47.10
2023-04-29T05:21:32.295Z,43.03
2023-04-29T05:24:00.023Z,37.97
2023-04-29T05:26:26.717Z,42.93
2023-04-29T05:28:57.078Z,43.50
2023-04-29T05:31:26.428Z,37.37
2023-04-29T05:33:53.457Z,38.70
2023-04-29T05:36:20.711Z,44.50
2023-04-29T05:38:47.493Z,41.97
2023-04-29T05:41:14.797Z,49.27
2023-04-29T05:43:59.415Z,39.13
2023-04-29T05:46:26.721Z,38.63
2023-04-29T05:48:54.124Z,38.43
2023-04-29T05:51:21.475Z,38.00
2023-04-29T05:53:49.256Z,47.07
2023-04-29T05:56:16.615Z,40.43
2023-04-29T05:58:43.549Z,42.07
2023-04-29T06:01:10.287Z,37.13
2023-04-29T06:03:37.525Z,37.70
2023-04-29T06:06:34.481Z,38.07
2023-04-29T06:09:27.466Z,39.97
2023-04-29T06:11:58.055Z,38.23
2023-04-29T06:14:27.206Z,34.53
2023-04-29T06:16:54.419Z,35.77
2023-04-29T06:19:25.195Z,36.67
2023-04-29T06:27:58.606Z,39.77
2023-04-29T06:30:28.480Z,36.23
2023-04-29T06:32:55.898Z,32.17
2023-04-29T06:35:25.418Z,37.20
2023-04-29T06:38:01.640Z,33.87
2023-04-29T06:40:38.379Z,33.20
2023-04-29T06:43:24.340Z,33.63
2023-04-29T06:46:10.699Z,32.37
2023-04-29T06:48:44.413Z,32.33
2023-04-29T06:51:11.245Z,29.70
2023-04-29T06:53:39.520Z,35.73
2023-04-29T06:56:06.993Z,31.97
2023-04-29T06:58:34.060Z,36.83
2023-04-29T07:01:01.040Z,31.40
2023-04-29T07:03:28.050Z,29.13
2023-04-29T07:05:54.870Z,27.40
2023-04-29T07:08:21.705Z,32.17
2023-04-29T07:10:56.670Z,31.97
2023-04-29T07:13:24.493Z,32.57
2023-04-29T07:15:51.754Z,31.83
2023-04-29T07:18:18.633Z,32.13
2023-04-29T07:20:46.081Z,40.13
2023-04-29T07:23:13.187Z,32.93
2023-04-29T07:25:41.197Z,31.07
2023-04-29T07:28:11.467Z,31.60
2023-04-29T07:30:40.920Z,31.03
2023-04-29T07:33:08.268Z,32.70
2023-04-29T07:35:35.077Z,29.43
2023-04-29T07:38:02.245Z,30.67
2023-04-29T07:40:31.238Z,34.40
2023-04-29T07:42:59.036Z,28.33
2023-04-29T07:45:26.712Z,31.43
2023-04-29T07:47:53.881Z,29.07
2023-04-29T07:50:21.048Z,28.77
2023-04-29T07:52:48.063Z,35.73
2023-04-29T07:55:17.171Z,35.77
2023-04-29T07:57:44.097Z,28.37
2023-04-29T08:00:12.378Z,30.93
2023-04-29T08:02:43.124Z,27.07
2023-04-29T08:05:13.552Z,29.77
2023-04-29T08:07:40.659Z,28.93
2023-04-29T08:10:08.013Z,30.50
2023-04-29T08:12:39.081Z,31.23
2023-04-29T08:15:09.745Z,26.57
2023-04-29T08:17:46.724Z,26.50
2023-04-29T08:20:13.877Z,27.30
2023-04-29T08:22:40.952Z,26.57
2023-04-29T08:25:08.731Z,24.97
2023-04-29T08:27:36.135Z,25.20
2023-04-29T08:30:03.169Z,23.13
2023-04-29T08:32:30.694Z,30.20
2023-04-29T08:34:57.899Z,26.37
2023-04-29T08:37:24.837Z,26.53
2023-04-29T08:39:51.491Z,25.53
2023-04-29T08:42:21.710Z,28.07
2023-04-29T08:44:49.689Z,26.03
2023-04-29T08:47:16.847Z,26.57
2023-04-29T08:49:43.726Z,24.80
2023-04-29T08:52:10.812Z,23.43
2023-04-29T08:54:37.658Z,26.20
2023-04-29T08:57:05.678Z,28.53
2023-04-29T08:59:32.681Z,24.63
2023-04-29T09:02:00.430Z,26.47
2023-04-29T09:04:30.906Z,29.03
2023-04-29T09:06:58.793Z,26.97
2023-04-29T09:09:26.550Z,27.80
2023-04-29T09:11:53.579Z,24.77
2023-04-29T09:14:20.841Z,24.73
2023-04-29T09:16:47.905Z,28.03
2023-04-29T09:19:34.529Z,22.53
2023-04-29T09:22:02.616Z,27.27
2023-04-29T09:24:31.619Z,28.83
2023-04-29T09:26:59.440Z,26.90
2023-04-29T09:29:26.535Z,27.60
2023-04-29T09:31:53.889Z,24.07
2023-04-29T09:34:38.403Z,22.10
2023-04-29T09:37:23.364Z,23.67
2023-04-29T09:39:50.656Z,21.93
2023-04-29T09:42:17.828Z,23.60
2023-04-29T09:44:45.801Z,31.33
2023-04-29T09:47:13.524Z,28.23
2023-04-29T09:49:42.764Z,26.93
2023-04-29T09:52:15.214Z,25.73
2023-04-29T09:54:43.698Z,22.17
2023-04-29T09:57:14.629Z,22.90
2023-04-29T09:59:42.118Z,25.57
2023-04-29T10:02:20.910Z,22.77
2023-04-29T10:04:54.809Z,21.90
2023-04-29T10:07:22.443Z,21.60
2023-04-29T10:09:49.334Z,19.43
2023-04-29T10:12:18.092Z,24.67
2023-04-29T10:14:51.612Z,18.33
2023-04-29T10:17:25.224Z,18.07
2023-04-29T10:20:07.648Z,22.10
2023-04-29T10:22:44.193Z,17.73
2023-04-29T10:25:12.366Z,19.57
2023-04-29T10:27:39.619Z,18.53
2023-04-29T10:30:07.895Z,21.47
2023-04-29T10:32:47.177Z,20.53
2023-04-29T10:35:23.614Z,18.10
2023-04-29T10:37:51.071Z,18.47
2023-04-29T10:40:23.211Z,17.40
2023-04-29T10:42:52.414Z,17.90
2023-04-29T10:45:22.918Z,19.53
2023-04-29T10:48:10.969Z,19.50
2023-04-29T10:50:47.048Z,22.57
2023-04-29T10:53:20.356Z,15.57
2023-04-29T10:55:48.688Z,18.17
2023-04-29T10:58:37.346Z,20.57
2023-04-29T11:01:04.628Z,16.47
2023-04-29T11:04:05.110Z,14.40
2023-04-29T11:06:38.354Z,19.50
2023-04-29T11:09:16.272Z,20.23
2023-04-29T11:17:37.883Z,18.40
2023-04-29T11:20:14.221Z,18.47
2023-04-29T11:22:41.305Z,17.70
2023-04-29T11:25:11.730Z,21.27
2023-04-29T11:27:40.324Z,18.97
2023-04-29T11:30:07.774Z,22.00
2023-04-29T11:32:43.006Z,17.73
2023-04-29T11:35:19.677Z,18.07
2023-04-29T11:37:47.610Z,18.53
2023-04-29T11:40:14.964Z,14.67
2023-04-29T11:42:49.384Z,14.70
2023-04-29T11:45:19.815Z,16.43
2023-04-29T11:47:48.081Z,16.30
2023-04-29T11:50:17.891Z,19.90
2023-04-29T11:52:46.753Z,16.53
2023-04-29T11:55:14.787Z,15.17
2023-04-29T11:57:41.865Z,18.23
2023-04-29T12:00:13.334Z,15.50
2023-04-29T12:02:45.184Z,15.80
2023-04-29T12:05:17.533Z,16.57
2023-04-29T12:07:44.796Z,15.93
2023-04-29T12:10:12.247Z,15.67
2023-04-29T12:12:46.825Z,15.10
2023-04-29T12:15:19.961Z,17.40
2023-04-29T12:17:47.687Z,13.00
2023-04-29T12:20:14.713Z,13.30
2023-04-29T12:22:43.824Z,17.17
2023-04-29T12:25:11.154Z,15.63
2023-04-29T12:27:41.567Z,17.97
2023-04-29T12:30:09.865Z,12.50
2023-04-29T12:32:37.336Z,18.33
2023-04-29T12:35:04.347Z,16.57
2023-04-29T12:37:33.465Z,15.40
2023-04-29T12:40:00.606Z,13.47
2023-04-29T12:42:33.722Z,13.50
2023-04-29T12:45:01.167Z,13.67
2023-04-29T12:47:33.899Z,10.57
2023-04-29T12:50:01.161Z,11.53
2023-04-29T12:52:27.929Z,13.97
2023-04-29T12:54:54.845Z,14.03
2023-04-29T12:57:23.058Z,13.10
2023-04-29T12:59:49.884Z,13.40
2023-04-29T13:02:16.747Z,14.53
2023-04-29T13:04:43.938Z,15.83
2023-04-29T13:07:11.026Z,13.43
2023-04-29T13:09:38.354Z,12.30
2023-04-29T13:12:05.719Z,14.53
2023-04-29T13:14:32.500Z,11.63
2023-04-29T13:16:59.339Z,12.27
2023-04-29T13:19:41.162Z,12.87
2023-04-29T13:22:13.691Z,14.23
2023-04-29T13:24:40.651Z,13.60
2023-04-29T13:27:07.495Z,11.63
2023-04-29T13:29:34.266Z,10.50
2023-04-29T13:32:01.270Z,11.13
2023-04-29T13:34:28.475Z,11.20
2023-04-29T13:36:55.236Z,11.13
2023-04-29T13:39:23.602Z,12.70
2023-04-29T13:41:51.029Z,10.87
2023-04-29T13:44:29.267Z,13.13
2023-04-29T13:47:01.707Z,17.90
2023-04-29T13:50:03.320Z,13.27
2023-04-29T13:53:01.455Z,13.50
2023-04-29T14:00:19.318Z,10.93
2023-04-29T14:05:23.502Z,13.83
2023-04-29T14:07:50.677Z,10.87
2023-04-29T14:10:17.590Z,14.33
2023-04-29T14:12:44.824Z,13.73
2023-04-29T14:15:12.366Z,14.33
2023-04-29T14:17:39.360Z,11.83
2023-04-29T14:20:07.002Z,15.80
2023-04-29T14:22:33.824Z,10.53
2023-04-29T14:25:00.694Z,11.93
2023-04-29T14:27:27.478Z,14.50
2023-04-29T14:29:54.478Z,10.73
2023-04-29T14:32:21.279Z,11.20
2023-04-29T14:34:48.442Z,13.47
2023-04-29T14:37:15.611Z,11.97
2023-04-29T14:39:42.445Z,14.70
2023-04-29T14:42:09.479Z,11.67
2023-04-29T14:44:36.464Z,12.33
2023-04-29T14:47:04.354Z,18.73
2023-04-29T14:49:31.779Z,10.47
2023-04-29T14:51:59.042Z,9.77
2023-04-29T14:54:27.209Z,12.33
2023-04-29T14:56:54.199Z,10.90
2023-04-29T14:59:21.170Z,12.03
2023-04-29T15:01:48.281Z,11.53
2023-04-29T15:04:16.134Z,12.40
2023-04-29T15:06:43.265Z,21.17
2023-04-29T15:09:10.675Z,10.70
2023-04-29T15:11:37.607Z,12.83
2023-04-29T15:14:04.429Z,12.90
2023-04-29T15:16:31.686Z,12.23
2023-04-29T15:18:59.102Z,12.13
2023-04-29T15:21:27.159Z,10.73
2023-04-29T15:23:54.482Z,10.23
2023-04-29T15:26:21.945Z,12.60
2023-04-29T15:28:49.410Z,13.03
2023-04-29T15:31:16.443Z,9.67
2023-04-29T15:33:43.736Z,10.27
2023-04-29T15:36:10.767Z,10.17
2023-04-29T15:38:37.694Z,9.83
2023-04-29T15:41:04.517Z,12.47
2023-04-29T15:43:32.914Z,9.53
2023-04-29T15:46:00.267Z,11.83
2023-04-29T15:48:27.309Z,10.20
2023-04-29T15:50:54.163Z,10.67
2023-04-29T15:53:21.182Z,12.33
2023-04-29T15:55:48.090Z,9.63
2023-04-29T15:58:14.893Z,8.73
2023-04-29T16:00:42.171Z,10.93
2023-04-29T16:03:08.992Z,12.93
2023-04-29T16:05:38.795Z,8.17
2023-04-29T16:08:06.702Z,9.43
2023-04-29T16:10:33.992Z,8.87
2023-04-29T16:13:09.423Z,13.47
2023-04-29T16:16:02.457Z,10.40
2023-04-29T16:18:29.403Z,8.50
2023-04-29T16:20:56.766Z,12.20
2023-04-29T16:23:24.047Z,9.40
2023-04-29T16:25:50.877Z,11.53
2023-04-29T16:28:17.901Z,9.07
2023-04-29T16:30:44.901Z,10.47
2023-04-29T16:33:11.673Z,10.50
2023-04-29T16:35:38.569Z,8.80
2023-04-29T16:38:07.621Z,7.83
2023-04-29T16:40:34.781Z,6.40
2023-04-29T16:43:01.567Z,8.77
2023-04-29T16:45:29.343Z,6.17
2023-04-29T16:47:58.313Z,6.47
2023-04-29T16:50:27.935Z,6.07
2023-04-29T16:52:54.764Z,11.60
2023-04-29T16:55:30.889Z,8.63
2023-04-29T16:57:58.612Z,10.90
2023-04-29T17:00:25.612Z,8.27
2023-04-29T17:02:53.021Z,7.87
2023-04-29T17:05:20.204Z,5.07
2023-04-29T17:07:47.355Z,9.37
2023-04-29T17:10:14.054Z,8.17
2023-04-29T17:12:40.884Z,8.27
2023-04-29T17:15:08.346Z,8.63
2023-04-29T17:17:35.223Z,9.20
2023-04-29T17:20:02.312Z,9.00
2023-04-29T17:22:29.136Z,8.60
2023-04-29T17:24:58.626Z,7.83
2023-04-29T17:27:25.652Z,7.10
2023-04-29T17:29:52.815Z,7.67
2023-04-29T17:32:28.154Z,5.77
2023-04-29T17:34:59.508Z,9.67
2023-04-29T17:37:26.639Z,9.20
2023-04-29T17:39:53.712Z,8.17
2023-04-29T17:42:23.569Z,8.50
2023-04-29T17:44:50.416Z,9.27
2023-04-29T17:47:17.589Z,8.27
2023-04-29T17:49:44.589Z,8.23
2023-04-29T17:52:11.918Z,9.53
2023-04-29T17:54:39.869Z,10.23
2023-04-29T17:57:06.774Z,9.30
2023-04-29T17:59:33.582Z,8.53
2023-04-29T18:02:00.365Z,12.27
2023-04-29T18:04:27.253Z,9.03
2023-04-29T18:06:54.046Z,8.23
2023-04-29T18:09:21.577Z,8.93
2023-04-29T18:11:49.225Z,8.17
2023-04-29T18:14:16.687Z,7.60
2023-04-29T18:16:43.662Z,6.63
2023-04-29T18:19:10.562Z,12.20
2023-04-29T18:21:37.691Z,7.70
2023-04-29T18:24:05.244Z,11.03
2023-04-29T18:26:32.080Z,9.33
2023-04-29T18:28:59.090Z,8.23
2023-04-29T18:31:27.449Z,6.87
2023-04-29T18:33:54.344Z,7.47
2023-04-29T18:36:21.884Z,9.57
2023-04-29T18:38:48.902Z,6.57
2023-04-29T18:41:15.684Z,6.97
2023-04-29T18:43:42.636Z,8.03
2023-04-29T18:46:09.707Z,8.60
2023-04-29T18:48:38.341Z,7.90
2023-04-29T18:51:06.365Z,7.03
2023-04-29T18:53:37.831Z,8.80
2023-04-29T18:56:05.112Z,6.93
2023-04-29T18:58:31.960Z,8.77
2023-04-29T19:01:00.115Z,13.20
2023-04-29T19:03:27.280Z,11.03
2023-04-29T19:05:54.273Z,9.77
2023-04-29T19:08:21.258Z,12.07
2023-04-29T19:10:48.151Z,14.27
2023-04-29T19:13:14.884Z,12.97
2023-04-29T19:15:41.746Z,10.20
2023-04-29T19:18:08.480Z,7.60
2023-04-29T19:20:35.328Z,7.17
2023-04-29T19:23:02.249Z,9.23
2023-04-29T19:25:29.031Z,13.00
2023-04-29T19:27:56.192Z,11.10
2023-04-29T19:30:22.994Z,9.83
2023-04-29T19:32:49.813Z,6.77
2023-04-29T19:35:16.782Z,12.20
2023-04-29T19:37:44.262Z,8.50
2023-04-29T19:40:11.417Z,10.93
2023-04-29T19:42:39.333Z,10.67
2023-04-29T19:45:07.767Z,9.73
2023-04-29T19:47:35.027Z,10.60
2023-04-29T19:50:02.384Z,12.37
2023-04-29T19:52:29.872Z,8.60
2023-04-29T19:54:56.968Z,10.17
2023-04-29T19:57:23.980Z,11.47
2023-04-29T19:59:50.920Z,9.67
2023-04-29T20:02:17.728Z,11.93
2023-04-29T20:04:44.556Z,9.90
2023-04-29T20:07:11.496Z,15.27
2023-04-29T20:09:38.354Z,15.20
2023-04-29T20:12:05.337Z,11.77
2023-04-29T20:14:32.965Z,14.33
2023-04-29T20:17:00.655Z,13.73
2023-04-29T20:19:27.751Z,13.57
2023-04-29T20:21:54.627Z,14.27
2023-04-29T20:24:21.664Z,18.93
2023-04-29T20:26:48.535Z,19.13
2023-04-29T20:29:15.275Z,15.40
2023-04-29T20:31:42.211Z,16.90
2023-04-29T20:34:08.941Z,20.53
2023-04-29T20:36:35.670Z,18.97
2023-04-29T20:39:02.555Z,16.27
2023-04-29T20:41:29.424Z,16.10
2023-04-29T20:43:56.606Z,18.47
2023-04-29T20:46:27.307Z,18.17
2023-04-29T20:48:54.154Z,16.97
2023-04-29T20:51:21.081Z,16.90
2023-04-29T20:53:48.481Z,17.73
2023-04-29T20:56:16.211Z,20.07
2023-04-29T20:58:42.984Z,19.03
2023-04-29T21:01:19.855Z,18.10
2023-04-29T21:03:46.755Z,16.60
2023-04-29T21:06:13.831Z,18.17
2023-04-29T21:08:40.855Z,15.43
2023-04-29T21:11:10.184Z,16.83
2023-04-29T21:13:37.626Z,19.23
2023-04-29T21:16:04.629Z,18.63
2023-04-29T21:18:31.420Z,19.23
2023-04-29T21:20:58.058Z,20.20
2023-04-29T21:23:24.936Z,16.93
2023-04-29T21:25:51.758Z,18.80
2023-04-29T21:28:18.764Z,21.20
2023-04-29T21:30:45.508Z,18.80
2023-04-29T21:33:12.328Z,18.27
2023-04-29T21:35:42.171Z,17.60
2023-04-29T21:38:11.908Z,18.87
2023-04-29T21:40:41.605Z,16.40
2023-04-29T21:43:10.027Z,16.43
2023-04-29T21:45:36.780Z,19.17
2023-04-29T21:48:17.626Z,21.10
2023-04-29T21:50:47.705Z,18.70
2023-04-29T21:53:16.366Z,19.90
2023-04-29T21:55:43.442Z,17.43
2023-04-29T21:58:11.079Z,19.33
2023-04-29T22:00:40.636Z,16.90
2023-04-29T22:03:11.350Z,20.87
2023-04-29T22:05:39.765Z,18.97
2023-04-29T22:08:07.632Z,19.60
2023-04-29T22:10:34.945Z,21.03
2023-04-29T22:13:01.938Z,23.17
2023-04-29T22:15:29.663Z,18.87
2023-04-29T22:17:57.872Z,20.20
2023-04-29T22:20:25.169Z,22.50
2023-04-29T22:22:52.292Z,19.07
2023-04-29T22:25:22.138Z,17.67
2023-04-29T22:27:51.841Z,14.07
2023-04-29T22:30:22.021Z,18.67
2023-04-29T22:32:49.047Z,22.67
2023-04-29T22:35:16.249Z,23.17
2023-04-29T22:37:43.022Z,17.53
2023-04-29T22:40:10.569Z,14.50
2023-04-29T22:42:37.528Z,17.80
2023-04-29T22:45:04.606Z,15.60
2023-04-29T22:47:32.154Z,15.73
2023-04-29T22:49:58.954Z,12.37
2023-04-29T22:52:27.494Z,11.70
2023-04-29T22:54:54.569Z,18.30
2023-04-29T22:57:21.405Z,11.77
2023-04-29T22:59:49.308Z,12.33
2023-04-29T23:02:16.313Z,12.10
2023-04-29T23:04:43.005Z,12.50
2023-04-29T23:07:09.937Z,9.47
2023-04-29T23:09:37.080Z,12.07
2023-04-29T23:12:04.077Z,11.93
2023-04-29T23:14:31.236Z,12.20
2023-04-29T23:16:58.113Z,11.37
2023-04-29T23:19:24.875Z,15.77
2023-04-29T23:21:51.586Z,9.83
2023-04-29T23:24:18.394Z,11.17
2023-04-29T23:26:45.150Z,13.10
2023-04-29T23:29:12.001Z,9.23
2023-04-29T23:31:38.870Z,11.90
2023-04-29T23:34:05.623Z,13.97
2023-04-29T23:36:32.599Z,12.17
2023-04-29T23:38:59.506Z,10.17
2023-04-29T23:41:26.322Z,11.03
2023-04-29T23:43:53.058Z,10.47
2023-04-29T23:46:20.054Z,12.80
2023-04-29T23:48:46.749Z,9.87
2023-04-29T23:51:13.873Z,10.30
2023-04-29T23:53:40.736Z,13.93
2023-04-29T23:56:07.679Z,10.57
2023-04-29T23:58:34.504Z,10.63
